createdAt,value
2023-02-18T00:02:12.680Z,10.33
2023-02-18T00:04:46.071Z,8.80
2023-02-18T00:07:17.678Z,10.95
2023-02-18T00:09:56.155Z,9.68
2023-02-18T00:12:23.236Z,8.13
2023-02-18T00:14:53.866Z,9.87
2023-02-18T00:17:28.069Z,8.13
2023-02-18T00:20:01.316Z,12.23
2023-02-18T00:22:33.391Z,9.93
2023-02-18T00:25:06.799Z,10.47
2023-02-18T00:27:37.260Z,12.07
2023-02-18T00:30:09.125Z,10.53
2023-02-18T00:32:39.763Z,14.23
2023-02-18T00:35:11.018Z,8.20
2023-02-18T00:37:43.106Z,10.07
2023-02-18T00:40:16.053Z,13.37
2023-02-18T00:42:49.390Z,11.25
2023-02-18T00:45:22.559Z,7.93
2023-02-18T00:47:53.219Z,9.95
2023-02-18T00:50:25.440Z,11.37
2023-02-18T00:52:58.305Z,12.17
2023-02-18T00:55:29.428Z,10.97
2023-02-18T00:58:00.107Z,11.53
2023-02-18T01:00:30.877Z,11.40
2023-02-18T01:03:05.666Z,6.05
2023-02-18T01:05:37.368Z,5.93
2023-02-18T01:08:09.682Z,9.08
2023-02-18T01:10:42.687Z,8.63
2023-02-18T01:13:14.557Z,10.18
2023-02-18T01:15:47.099Z,11.97
2023-02-18T01:18:19.161Z,9.37
2023-02-18T01:20:50.206Z,8.20
2023-02-18T01:23:21.630Z,11.13
2023-02-18T01:25:54.538Z,8.30
2023-02-18T01:28:26.185Z,7.30
2023-02-18T01:30:56.987Z,9.78
2023-02-18T01:33:29.488Z,7.80
2023-02-18T01:36:00.057Z,7.80
2023-02-18T01:38:31.439Z,9.18
2023-02-18T01:41:03.549Z,11.97
2023-02-18T01:43:34.908Z,8.80
2023-02-18T01:46:20.970Z,10.97
2023-02-18T01:49:01.410Z,9.15
2023-02-18T01:51:35.341Z,8.25
2023-02-18T01:54:14.851Z,8.13
2023-02-18T01:56:51.152Z,8.55
2023-02-18T01:59:30.935Z,13.00
2023-02-18T02:02:02.281Z,9.65
2023-02-18T02:04:33.403Z,7.17
2023-02-18T02:07:05.150Z,12.58
2023-02-18T02:09:37.344Z,8.20
2023-02-18T02:12:19.594Z,12.37
2023-02-18T02:15:02.323Z,9.70
2023-02-18T02:17:54.393Z,13.87
2023-02-18T02:20:53.085Z,9.43
2023-02-18T02:23:46.657Z,8.93
2023-02-18T02:26:44.875Z,9.73
2023-02-18T02:29:37.376Z,8.57
2023-02-18T02:32:43.961Z,9.53
2023-02-18T02:35:17.684Z,8.60
2023-02-18T02:38:07.211Z,8.97
2023-02-18T02:40:46.380Z,10.98
2023-02-18T02:43:44.375Z,9.03
2023-02-18T02:46:26.100Z,12.70
2023-02-18T02:49:08.770Z,10.30
2023-02-18T02:52:03.008Z,12.77
2023-02-18T02:54:34.052Z,11.40
2023-02-18T02:57:16.118Z,7.53
2023-02-18T02:59:49.782Z,10.43
2023-02-18T03:02:29.032Z,9.70
2023-02-18T03:05:17.906Z,10.57
2023-02-18T03:08:15.406Z,8.53
2023-02-18T03:11:01.030Z,11.27
2023-02-18T03:14:06.529Z,8.23
2023-02-18T03:17:02.933Z,9.30
2023-02-18T03:19:36.484Z,11.50
2023-02-18T03:22:10.246Z,5.73
2023-02-18T03:24:43.878Z,7.83
2023-02-18T03:27:26.338Z,7.37
2023-02-18T03:30:12.693Z,9.28
2023-02-18T03:32:45.074Z,7.35
2023-02-18T03:35:18.358Z,9.33
2023-02-18T03:37:55.486Z,7.27
2023-02-18T03:40:28.353Z,9.50
2023-02-18T03:43:01.149Z,7.60
2023-02-18T03:45:37.437Z,8.47
2023-02-18T03:48:09.029Z,7.13
2023-02-18T03:50:40.124Z,11.68
2023-02-18T03:53:13.440Z,9.43
2023-02-18T03:55:43.910Z,6.70
2023-02-18T03:58:14.415Z,6.87
2023-02-18T04:00:44.764Z,8.08
2023-02-18T04:03:16.878Z,7.37
2023-02-18T04:05:48.111Z,9.35
2023-02-18T04:08:18.890Z,10.97
2023-02-18T04:10:50.690Z,8.10
2023-02-18T04:13:23.515Z,8.17
2023-02-18T04:15:54.506Z,4.87
2023-02-18T04:18:25.149Z,7.87
2023-02-18T04:20:57.563Z,7.70
2023-02-18T04:23:30.331Z,8.40
2023-02-18T04:26:00.882Z,9.33
2023-02-18T04:28:31.450Z,5.00
2023-02-18T04:31:02.292Z,7.57
2023-02-18T04:33:32.975Z,10.97
2023-02-18T04:36:03.851Z,7.17
2023-02-18T04:38:37.249Z,8.13
2023-02-18T04:41:08.340Z,4.97
2023-02-18T04:43:40.971Z,7.33
2023-02-18T04:46:11.865Z,7.30
2023-02-18T04:48:42.808Z,8.57
2023-02-18T04:51:13.801Z,5.40
2023-02-18T04:53:44.377Z,7.30
2023-02-18T04:56:16.596Z,6.50
2023-02-18T04:58:47.882Z,7.30
2023-02-18T05:01:18.882Z,6.43
2023-02-18T05:03:49.464Z,7.20
2023-02-18T05:06:20.334Z,6.27
2023-02-18T05:08:50.887Z,7.70
2023-02-18T05:11:21.521Z,5.80
2023-02-18T05:13:52.235Z,7.10
2023-02-18T05:16:22.974Z,6.53
2023-02-18T05:18:53.441Z,5.87
2023-02-18T05:21:26.380Z,5.73
2023-02-18T05:23:58.289Z,3.98
2023-02-18T05:26:28.902Z,5.50
2023-02-18T05:28:59.372Z,8.70
2023-02-18T05:31:30.406Z,6.90
2023-02-18T05:34:01.231Z,6.57
2023-02-18T05:36:33.175Z,8.33
2023-02-18T05:39:03.929Z,5.00
2023-02-18T05:41:34.516Z,6.55
2023-02-18T05:44:23.325Z,3.47
2023-02-18T05:46:53.932Z,7.33
2023-02-18T05:49:27.224Z,7.00
2023-02-18T05:51:57.393Z,4.37
2023-02-18T05:54:28.603Z,3.58
2023-02-18T05:56:59.106Z,3.95
2023-02-18T05:59:30.348Z,5.40
2023-02-18T06:02:01.505Z,6.83
2023-02-18T06:04:32.711Z,5.37
2023-02-18T06:07:05.728Z,4.72
2023-02-18T06:09:35.334Z,7.05
2023-02-18T06:12:06.573Z,5.20
2023-02-18T06:14:40.865Z,4.62
2023-02-18T06:17:14.022Z,4.97
2023-02-18T06:19:44.966Z,4.53
2023-02-18T06:22:15.959Z,8.23
2023-02-18T06:24:48.219Z,4.53
2023-02-18T06:27:18.817Z,4.55
2023-02-18T06:29:49.475Z,6.28
2023-02-18T06:32:20.312Z,6.28
2023-02-18T06:34:50.993Z,5.30
2023-02-18T06:37:21.580Z,5.47
2023-02-18T06:39:53.762Z,4.83
2023-02-18T06:42:24.493Z,4.17
2023-02-18T06:44:54.946Z,4.72
2023-02-18T06:47:25.706Z,4.33
2023-02-18T06:49:56.332Z,7.60
2023-02-18T06:52:26.995Z,7.35
2023-02-18T06:54:59.056Z,8.03
2023-02-18T06:57:31.171Z,6.58
2023-02-18T07:00:01.913Z,5.40
2023-02-18T07:02:32.291Z,6.10
2023-02-18T07:05:05.988Z,5.20
2023-02-18T07:07:36.518Z,4.42
2023-02-18T07:10:08.294Z,4.95
2023-02-18T07:12:38.706Z,6.67
2023-02-18T07:15:09.973Z,4.17
2023-02-18T07:17:42.022Z,3.80
2023-02-18T07:20:12.689Z,4.35
2023-02-18T07:22:43.141Z,2.50
2023-02-18T07:25:13.949Z,3.47
2023-02-18T07:27:44.471Z,4.92
2023-02-18T07:30:15.926Z,4.87
2023-02-18T07:32:46.543Z,4.40
2023-02-18T07:35:18.248Z,4.62
2023-02-18T07:37:49.806Z,3.13
2023-02-18T07:40:23.106Z,4.53
2023-02-18T07:42:53.879Z,5.15
2023-02-18T07:45:24.388Z,3.92
2023-02-18T07:47:55.682Z,4.05
2023-02-18T07:50:28.705Z,5.40
2023-02-18T07:52:59.481Z,4.72
2023-02-18T07:55:33.630Z,4.75
2023-02-18T07:58:04.233Z,5.03
2023-02-18T08:00:36.332Z,6.35
2023-02-18T08:03:06.902Z,4.87
2023-02-18T08:05:37.901Z,5.05
2023-02-18T08:08:09.096Z,4.65
2023-02-18T08:10:41.145Z,4.12
2023-02-18T08:13:11.864Z,5.85
2023-02-18T08:15:43.035Z,4.70
2023-02-18T08:18:20.600Z,5.25
2023-02-18T08:20:53.201Z,3.55
2023-02-18T08:23:25.898Z,3.92
2023-02-18T08:25:56.489Z,3.40
2023-02-18T08:28:28.064Z,6.87
2023-02-18T08:30:59.087Z,3.50
2023-02-18T08:33:30.270Z,4.03
2023-02-18T08:36:00.917Z,6.47
2023-02-18T08:38:31.659Z,5.95
2023-02-18T08:41:05.433Z,3.08
2023-02-18T08:43:37.826Z,5.67
2023-02-18T08:46:08.330Z,4.03
2023-02-18T08:48:40.817Z,5.40
2023-02-18T08:51:20.626Z,7.00
2023-02-18T08:53:51.996Z,4.10
2023-02-18T08:56:22.415Z,4.45
2023-02-18T08:58:52.947Z,5.70
2023-02-18T09:01:23.558Z,4.75
2023-02-18T09:03:56.034Z,5.87
2023-02-18T09:06:27.766Z,7.00
2023-02-18T09:08:59.260Z,4.95
2023-02-18T09:11:30.074Z,6.42
2023-02-18T09:14:00.737Z,6.83
2023-02-18T09:16:31.498Z,3.72
2023-02-18T09:19:02.099Z,6.08
2023-02-18T09:21:32.517Z,6.90
2023-02-18T09:24:04.611Z,8.85
2023-02-18T09:26:35.353Z,8.05
2023-02-18T09:29:05.934Z,4.40
2023-02-18T09:31:39.472Z,8.85
2023-02-18T09:34:09.988Z,3.87
2023-02-18T09:36:40.913Z,8.05
2023-02-18T09:39:16.104Z,5.95
2023-02-18T09:42:08.113Z,6.97
2023-02-18T09:44:50.673Z,7.80
2023-02-18T09:47:24.376Z,8.15
2023-02-18T09:49:58.181Z,5.75
2023-02-18T09:52:36.627Z,9.55
2023-02-18T09:55:19.623Z,6.37
2023-02-18T09:57:54.857Z,4.72
2023-02-18T10:00:38.184Z,7.53
2023-02-18T10:03:18.428Z,4.80
2023-02-18T10:06:04.020Z,6.28
2023-02-18T10:08:41.218Z,5.05
2023-02-18T10:11:17.859Z,4.80
2023-02-18T10:13:48.463Z,6.75
2023-02-18T10:16:23.742Z,7.17
2023-02-18T10:19:00.195Z,6.40
2023-02-18T10:21:34.897Z,5.78
2023-02-18T10:24:08.439Z,6.40
2023-02-18T10:26:40.569Z,5.85
2023-02-18T10:29:22.167Z,5.72
2023-02-18T10:32:13.681Z,6.28
2023-02-18T10:34:53.434Z,9.70
2023-02-18T10:37:39.001Z,6.95
2023-02-18T10:40:21.666Z,7.40
2023-02-18T10:43:02.997Z,8.25
2023-02-18T10:45:52.924Z,7.72
2023-02-18T10:48:44.827Z,6.28
2023-02-18T10:51:23.112Z,7.90
2023-02-18T10:53:55.041Z,5.85
2023-02-18T10:56:40.650Z,8.40
2023-02-18T10:59:15.777Z,6.00
2023-02-18T11:01:48.640Z,6.12
2023-02-18T11:04:21.951Z,5.37
2023-02-18T11:06:58.465Z,5.83
2023-02-18T11:09:37.119Z,4.33
2023-02-18T11:12:28.571Z,5.55
2023-02-18T11:15:18.257Z,4.75
2023-02-18T11:17:51.823Z,8.00
2023-02-18T11:20:40.655Z,8.30
2023-02-18T11:23:21.802Z,6.47
2023-02-18T11:26:04.643Z,4.20
2023-02-18T11:28:49.413Z,3.47
2023-02-18T11:31:25.856Z,3.92
2023-02-18T11:33:59.369Z,3.72
2023-02-18T11:36:39.354Z,21.10
2023-02-18T11:39:24.735Z,4.90
2023-02-18T11:42:07.575Z,4.83
2023-02-18T11:44:41.184Z,5.60
2023-02-18T11:47:21.416Z,7.07
2023-02-18T11:50:04.015Z,3.83
2023-02-18T11:52:37.397Z,2.92
2023-02-18T11:55:11.182Z,2.92
2023-02-18T11:57:47.678Z,3.52
2023-02-18T12:00:26.848Z,3.25
2023-02-18T12:03:00.636Z,5.28
2023-02-18T12:05:32.660Z,3.72
2023-02-18T12:08:18.352Z,4.12
2023-02-18T12:10:55.308Z,2.90
2023-02-18T12:13:28.712Z,2.58
2023-02-18T12:16:23.748Z,3.42
2023-02-18T12:19:31.150Z,3.52
2023-02-18T12:22:17.353Z,3.85
2023-02-18T12:24:56.967Z,3.60
2023-02-18T12:27:33.736Z,3.50
2023-02-18T12:30:28.495Z,3.72
2023-02-18T12:33:18.627Z,4.45
2023-02-18T12:36:04.300Z,4.67
2023-02-18T12:38:59.023Z,4.60
2023-02-18T12:41:42.313Z,5.03
2023-02-18T12:44:22.079Z,5.47
2023-02-18T12:47:32.453Z,5.60
2023-02-18T12:50:29.002Z,5.10
2023-02-18T12:53:26.496Z,6.72
2023-02-18T12:56:15.281Z,5.58
2023-02-18T12:59:09.965Z,6.90
2023-02-18T13:02:12.698Z,5.45
2023-02-18T13:05:01.708Z,5.53
2023-02-18T13:07:54.405Z,4.45
2023-02-18T13:10:50.024Z,4.67
2023-02-18T13:13:33.207Z,4.83
2023-02-18T13:16:09.747Z,5.70
2023-02-18T13:18:43.530Z,4.75
2023-02-18T13:21:18.422Z,4.28
2023-02-18T13:23:54.551Z,4.60
2023-02-18T13:26:25.940Z,4.47
2023-02-18T13:29:16.187Z,4.12
2023-02-18T13:32:19.323Z,3.92
2023-02-18T13:34:57.958Z,3.55
2023-02-18T13:37:49.497Z,5.37
2023-02-18T13:40:27.591Z,3.72
2023-02-18T13:43:10.093Z,3.77
2023-02-18T13:45:41.054Z,3.17
2023-02-18T13:48:31.871Z,2.90
2023-02-18T13:51:05.281Z,2.90
2023-02-18T13:53:42.839Z,2.50
2023-02-18T13:56:29.064Z,2.62
2023-02-18T13:59:14.128Z,3.17
2023-02-18T14:01:47.081Z,2.42
2023-02-18T14:04:40.998Z,2.40
2023-02-18T14:07:41.883Z,2.60
2023-02-18T14:10:25.415Z,4.22
2023-02-18T14:12:59.049Z,2.62
2023-02-18T14:15:33.501Z,3.08
2023-02-18T14:18:28.082Z,3.22
2023-02-18T14:21:01.676Z,4.47
2023-02-18T14:23:41.102Z,3.33
2023-02-18T14:26:14.948Z,3.42
2023-02-18T14:28:58.757Z,2.35
2023-02-18T14:31:44.451Z,1.95
2023-02-18T14:34:38.811Z,1.60
2023-02-18T14:37:21.069Z,2.83
2023-02-18T14:40:19.998Z,2.17
2023-02-18T14:43:08.892Z,1.98
2023-02-18T14:46:02.945Z,2.30
2023-02-18T14:48:57.426Z,2.08
2023-02-18T14:51:31.017Z,2.08
2023-02-18T14:54:07.889Z,2.60
2023-02-18T14:56:42.985Z,2.30
2023-02-18T14:59:15.219Z,2.17
2023-02-18T15:01:48.348Z,2.30
2023-02-18T15:04:19.319Z,2.30
2023-02-18T15:07:01.688Z,2.60
2023-02-18T15:09:33.501Z,2.50
2023-02-18T15:12:09.505Z,2.52
2023-02-18T15:14:44.800Z,2.30
2023-02-18T15:17:24.619Z,2.70
2023-02-18T15:19:58.213Z,2.42
2023-02-18T15:22:34.117Z,2.20
2023-02-18T15:25:05.399Z,2.45
2023-02-18T15:27:39.012Z,2.02
2023-02-18T15:30:24.366Z,1.80
2023-02-18T15:33:00.723Z,2.22
2023-02-18T15:35:33.885Z,2.80
2023-02-18T15:38:04.844Z,3.00
2023-02-18T15:40:40.704Z,1.87
2023-02-18T15:43:17.141Z,2.15
2023-02-18T15:45:50.419Z,1.98
2023-02-18T15:48:35.841Z,1.20
2023-02-18T15:51:17.746Z,1.35
2023-02-18T15:53:50.680Z,1.27
2023-02-18T15:56:33.344Z,1.62
2023-02-18T15:59:18.775Z,1.30
2023-02-18T16:01:59.353Z,1.55
2023-02-18T16:04:32.585Z,1.12
2023-02-18T16:07:06.214Z,1.32
2023-02-18T16:09:39.782Z,1.10
2023-02-18T16:12:19.356Z,1.22
2023-02-18T16:14:51.916Z,0.88
2023-02-18T16:17:26.212Z,0.85
2023-02-18T16:20:19.099Z,1.40
2023-02-18T16:22:55.233Z,1.02
2023-02-18T16:25:28.845Z,1.15
2023-02-18T16:28:07.115Z,1.67
2023-02-18T16:30:38.495Z,3.08
2023-02-18T16:33:09.932Z,1.95
2023-02-18T16:35:49.438Z,2.45
2023-02-18T16:38:21.569Z,1.72
2023-02-18T16:40:54.216Z,1.05
2023-02-18T16:43:29.907Z,1.37
2023-02-18T16:46:09.644Z,13.88
2023-02-18T16:48:42.065Z,2.58
2023-02-18T16:51:15.752Z,8.70
2023-02-18T16:53:50.051Z,4.55
2023-02-18T16:56:25.667Z,2.00
2023-02-18T16:58:55.881Z,5.05
2023-02-18T17:01:32.660Z,2.10
2023-02-18T17:04:04.082Z,2.77
2023-02-18T17:06:34.954Z,1.90
2023-02-18T17:09:17.718Z,1.82
2023-02-18T17:11:56.137Z,2.20
2023-02-18T17:14:27.853Z,3.02
2023-02-18T17:16:59.240Z,1.45
2023-02-18T17:19:30.348Z,3.15
2023-02-18T17:22:04.040Z,1.70
2023-02-18T17:24:36.062Z,2.02
2023-02-18T17:27:09.427Z,1.47
2023-02-18T17:29:40.083Z,2.27
2023-02-18T17:32:12.253Z,2.17
2023-02-18T17:34:42.922Z,3.40
2023-02-18T17:37:14.204Z,2.20
2023-02-18T17:39:44.906Z,2.05
2023-02-18T17:42:15.496Z,2.10
2023-02-18T17:44:46.239Z,1.82
2023-02-18T17:47:19.497Z,1.40
2023-02-18T17:49:50.279Z,1.60
2023-02-18T17:52:31.280Z,1.30
2023-02-18T17:55:06.878Z,1.20
2023-02-18T17:57:38.166Z,1.50
2023-02-18T18:00:12.206Z,1.40
2023-02-18T18:02:44.477Z,1.60
2023-02-18T18:05:21.389Z,2.30
2023-02-18T18:07:55.165Z,1.40
2023-02-18T18:10:30.132Z,1.87
2023-02-18T18:13:03.696Z,2.30
2023-02-18T18:15:43.170Z,1.70
2023-02-18T18:18:15.776Z,2.10
2023-02-18T18:20:49.523Z,3.12
2023-02-18T18:23:22.115Z,8.63
2023-02-18T18:25:56.423Z,4.65
2023-02-18T18:28:28.211Z,4.97
2023-02-18T18:31:01.549Z,6.60
2023-02-18T18:33:34.914Z,3.80
2023-02-18T18:36:07.009Z,3.92
2023-02-18T18:38:39.106Z,2.45
2023-02-18T18:41:20.777Z,4.12
2023-02-18T18:43:52.917Z,3.90
2023-02-18T18:46:24.042Z,3.90
2023-02-18T18:48:55.842Z,6.17
2023-02-18T18:51:34.690Z,2.35
2023-02-18T18:54:05.294Z,2.70
2023-02-18T18:56:38.543Z,3.33
2023-02-18T18:59:10.206Z,2.95
2023-02-18T19:01:40.728Z,2.12
2023-02-18T19:04:11.180Z,6.05
2023-02-18T19:06:41.845Z,2.15
2023-02-18T19:09:12.394Z,6.47
2023-02-18T19:11:43.077Z,2.30
2023-02-18T19:14:14.814Z,2.10
2023-02-18T19:16:45.446Z,2.37
2023-02-18T19:19:16.385Z,3.20
2023-02-18T19:21:48.987Z,2.73
2023-02-18T19:24:19.527Z,2.90
2023-02-18T19:26:51.784Z,3.35
2023-02-18T19:29:23.511Z,2.00
2023-02-18T19:31:54.467Z,1.87
2023-02-18T19:34:27.707Z,1.73
2023-02-18T19:37:02.732Z,2.50
2023-02-18T19:39:34.835Z,1.87
2023-02-18T19:42:05.369Z,3.30
2023-02-18T19:44:38.279Z,5.30
2023-02-18T19:47:11.273Z,3.62
2023-02-18T19:49:42.515Z,3.07
2023-02-18T19:52:15.925Z,3.70
2023-02-18T19:54:47.130Z,2.87
2023-02-18T19:57:17.991Z,3.47
2023-02-18T19:59:48.834Z,3.17
2023-02-18T20:02:24.250Z,3.30
2023-02-18T20:04:56.732Z,3.77
2023-02-18T20:07:28.706Z,6.53
2023-02-18T20:10:00.729Z,7.03
2023-02-18T20:12:31.901Z,6.13
2023-02-18T20:15:03.934Z,4.03
2023-02-18T20:17:35.927Z,4.03
2023-02-18T20:20:09.679Z,5.23
2023-02-18T20:22:43.690Z,3.42
2023-02-18T20:25:14.288Z,3.37
2023-02-18T20:27:59.726Z,3.98
2023-02-18T20:30:19.152Z,3.22
2023-02-18T20:32:49.592Z,4.17
2023-02-18T20:35:21.528Z,4.07
2023-02-18T20:37:55.031Z,3.40
2023-02-18T20:40:27.978Z,3.43
2023-02-18T20:42:58.434Z,3.80
2023-02-18T20:45:29.893Z,3.60
2023-02-18T20:48:02.949Z,4.53
2023-02-18T20:50:34.939Z,4.80
2023-02-18T20:53:05.460Z,5.28
2023-02-18T20:55:36.701Z,4.97
2023-02-18T20:58:07.101Z,3.73
2023-02-18T21:00:38.821Z,4.62
2023-02-18T21:03:12.574Z,4.47
2023-02-18T21:05:43.985Z,4.03
2023-02-18T21:08:16.055Z,4.15
2023-02-18T21:10:46.580Z,5.00
2023-02-18T21:13:17.169Z,6.07
2023-02-18T21:15:48.137Z,5.20
2023-02-18T21:18:20.503Z,5.47
2023-02-18T21:20:51.069Z,6.30
2023-02-18T21:23:24.407Z,5.07
2023-02-18T21:25:55.079Z,5.47
2023-02-18T21:28:26.998Z,5.65
2023-02-18T21:30:57.571Z,4.87
2023-02-18T21:33:28.673Z,5.37
2023-02-18T21:36:03.136Z,5.40
2023-02-18T21:38:35.101Z,4.80
2023-02-18T21:41:10.020Z,5.70
2023-02-18T21:43:40.833Z,4.30
2023-02-18T21:46:20.607Z,4.10
2023-02-18T21:49:05.572Z,5.43
2023-02-18T21:51:57.216Z,4.60
2023-02-18T21:54:46.138Z,5.03
2023-02-18T21:57:20.862Z,3.95
2023-02-18T21:59:52.004Z,3.13
2023-02-18T22:02:25.479Z,3.97
2023-02-18T22:04:56.544Z,3.00
2023-02-18T22:07:28.825Z,3.80
2023-02-18T22:09:59.313Z,3.52
2023-02-18T22:12:32.371Z,3.95
2023-02-18T22:15:06.374Z,3.53
2023-02-18T22:17:36.513Z,2.83
2023-02-18T22:20:09.145Z,2.57
2023-02-18T22:22:39.798Z,3.03
2023-02-18T22:25:11.409Z,3.57
2023-02-18T22:27:43.105Z,4.33
2023-02-18T22:30:14.060Z,3.67
2023-02-18T22:32:44.493Z,4.10
2023-02-18T22:35:16.665Z,3.13
2023-02-18T22:37:47.123Z,3.02
2023-02-18T22:40:26.101Z,3.45
2023-02-18T22:42:56.609Z,3.10
2023-02-18T22:45:28.322Z,3.30
2023-02-18T22:48:01.099Z,3.52
2023-02-18T22:50:37.274Z,4.10
2023-02-18T22:53:09.396Z,4.07
2023-02-18T22:55:39.916Z,3.42
2023-02-18T22:58:11.422Z,3.47
2023-02-18T23:00:43.838Z,3.63
2023-02-18T23:03:17.282Z,3.75
2023-02-18T23:05:47.672Z,3.67
2023-02-18T23:08:18.392Z,4.30
2023-02-18T23:10:48.895Z,4.23
2023-02-18T23:13:19.333Z,4.33
2023-02-18T23:15:58.833Z,3.53
2023-02-18T23:18:32.720Z,3.52
2023-02-18T23:21:23.309Z,3.17
2023-02-18T23:23:56.402Z,3.40
2023-02-18T23:26:28.218Z,4.05
2023-02-18T23:28:58.924Z,4.12
2023-02-18T23:31:29.577Z,3.10
2023-02-18T23:34:02.047Z,3.08
2023-02-18T23:36:35.356Z,4.33
2023-02-18T23:39:12.399Z,4.07
2023-02-18T23:41:45.472Z,3.67
2023-02-18T23:44:18.673Z,3.30
2023-02-18T23:46:49.165Z,3.00
2023-02-18T23:49:24.918Z,3.73
2023-02-18T23:51:59.103Z,2.97
2023-02-18T23:54:31.740Z,3.17
2023-02-18T23:57:02.929Z,3.65
2023-02-18T23:59:36.413Z,3.07
